Terminal Aerodrome Forecast
Issued by NWS

Home | Current Version | Previous Version | Text Only | Print | Product List | Glossary On
Versions: 1 2 3 4 5 6 7 8 9 10 11 12 13 14 15 16 17 18 19 20 21 22 23 24 25 26 27 28 29 30
000
FTAK31 PAFA 141720
TAFAQT
TAF
PAQT 141720Z 1418/1518 05020G27KT 1/2SM -SN BLSN VV009
     FM142000 05025G31KT 1/4SM SN BLSN OVC003
     FM150200 06019KT 1/2SM SN BLSN OVC007
     FM151100 05019KT 1 1/2SM -SN BLSN OVC015=

USA.gov is the U.S. government's official web portal to all federal, state and local government web resources and services.